createdAt,value
2022-09-28T00:01:10.615Z,95995.00
2022-09-28T00:03:37.733Z,95989.03
2022-09-28T00:06:07.478Z,95997.44
2022-09-28T00:08:35.356Z,96003.25
2022-09-28T00:11:03.642Z,95992.78
2022-09-28T00:13:33.021Z,95997.22
2022-09-28T00:16:04.719Z,96003.06
2022-09-28T00:18:32.292Z,96008.78
2022-09-28T00:21:02.534Z,96008.59
2022-09-28T00:23:29.753Z,96000.69
2022-09-28T00:25:56.762Z,96004.41
2022-09-28T00:28:23.572Z,96012.25
2022-09-28T00:30:55.524Z,96001.34
2022-09-28T00:33:22.477Z,96007.16
2022-09-28T00:35:58.324Z,95992.34
2022-09-28T00:38:30.907Z,95989.66
2022-09-28T00:40:57.920Z,95985.50
2022-09-28T00:43:26.014Z,96000.38
2022-09-28T00:46:15.943Z,96002.38
2022-09-28T00:48:58.903Z,95991.75
2022-09-28T00:51:27.124Z,95996.69
2022-09-28T00:53:56.197Z,96004.28
2022-09-28T00:56:28.337Z,96001.84
2022-09-28T00:58:57.563Z,95983.84
2022-09-28T01:01:24.730Z,96002.41
2022-09-28T01:03:52.140Z,96008.00
2022-09-28T01:06:24.557Z,95981.94
2022-09-28T01:08:53.740Z,96016.28
2022-09-28T01:11:22.176Z,96005.84
2022-09-28T01:13:50.788Z,96005.19
2022-09-28T01:16:27.043Z,95994.91
2022-09-28T01:19:18.509Z,95999.94
2022-09-28T01:22:14.681Z,95991.84
2022-09-28T01:24:57.173Z,95975.72
2022-09-28T01:27:38.384Z,95993.44
2022-09-28T01:30:08.503Z,95984.03
2022-09-28T01:33:01.489Z,95984.06
2022-09-28T01:35:31.366Z,95977.47
2022-09-28T01:38:04.169Z,95974.72
2022-09-28T01:40:34.482Z,95972.56
2022-09-28T01:43:06.443Z,95977.66
2022-09-28T01:45:40.676Z,95968.38
2022-09-28T01:48:10.871Z,95974.41
2022-09-28T01:50:41.142Z,95979.41
2022-09-28T01:53:51.522Z,95986.00
2022-09-28T01:56:31.466Z,95987.38
2022-09-28T01:59:13.585Z,95973.41
2022-09-28T02:02:00.739Z,95983.31
2022-09-28T02:04:36.637Z,95984.16
2022-09-28T02:07:31.460Z,95989.03
2022-09-28T02:10:13.090Z,95977.63
2022-09-28T02:12:46.528Z,95997.50
2022-09-28T02:15:32.147Z,96007.44
2022-09-28T02:18:02.483Z,96014.13
2022-09-28T02:20:34.458Z,96023.25
2022-09-28T02:23:05.707Z,96010.81
2022-09-28T02:25:43.801Z,96014.63
2022-09-28T02:28:16.030Z,96006.72
2022-09-28T02:30:45.122Z,95997.88
2022-09-28T02:33:26.058Z,96000.66
2022-09-28T02:35:55.609Z,95991.13
2022-09-28T02:38:24.258Z,95984.00
2022-09-28T02:41:04.632Z,95983.00
2022-09-28T02:44:42.927Z,95985.81
2022-09-28T02:47:15.835Z,95989.47
2022-09-28T02:49:55.051Z,95989.56
2022-09-28T02:52:50.406Z,95975.00
2022-09-28T02:55:20.850Z,95977.94
2022-09-28T02:57:57.020Z,95985.59
2022-09-28T03:00:25.495Z,95987.97
2022-09-28T03:03:04.510Z,96000.09
2022-09-28T03:05:39.846Z,96005.81
2022-09-28T03:08:19.740Z,95998.56
2022-09-28T03:10:49.596Z,96006.75
2022-09-28T03:13:18.212Z,96007.22
2022-09-28T03:15:48.656Z,96010.06
2022-09-28T03:18:17.667Z,96012.16
2022-09-28T03:20:44.893Z,96001.31
2022-09-28T03:23:29.950Z,95998.81
2022-09-28T03:26:01.469Z,96007.00
2022-09-28T03:28:29.859Z,96008.00
2022-09-28T03:30:57.706Z,96010.97
2022-09-28T03:33:24.865Z,96005.75
2022-09-28T03:35:51.990Z,95998.63
2022-09-28T03:38:20.491Z,95999.78
2022-09-28T03:40:59.379Z,95992.19
2022-09-28T03:43:31.183Z,95994.56
2022-09-28T03:46:01.791Z,95995.50
2022-09-28T03:48:35.784Z,96003.75
2022-09-28T03:51:05.523Z,96002.75
2022-09-28T03:53:33.469Z,96001.81
2022-09-28T03:56:06.543Z,96007.66
2022-09-28T03:58:34.246Z,96012.13
2022-09-28T04:01:07.406Z,95997.56
2022-09-28T04:03:35.779Z,96006.16
2022-09-28T04:06:02.885Z,96018.66
2022-09-28T04:08:30.324Z,96012.66
2022-09-28T04:11:01.515Z,96003.25
2022-09-28T04:13:30.068Z,96005.00
2022-09-28T04:16:01.138Z,96006.38
2022-09-28T04:18:31.298Z,96011.72
2022-09-28T04:21:16.152Z,96013.66
2022-09-28T04:23:54.360Z,96030.19
2022-09-28T04:26:26.495Z,96007.84
2022-09-28T04:29:12.798Z,96023.31
2022-09-28T04:31:42.525Z,96033.19
2022-09-28T04:34:09.550Z,96012.41
2022-09-28T04:36:36.962Z,96027.47
2022-09-28T04:39:05.476Z,96028.22
2022-09-28T04:41:33.537Z,96046.25
2022-09-28T04:44:01.093Z,96032.16
2022-09-28T04:46:28.194Z,96043.06
2022-09-28T04:49:27.474Z,96045.88
2022-09-28T04:52:02.560Z,96046.00
2022-09-28T04:54:29.395Z,96051.91
2022-09-28T04:56:58.601Z,96043.34
2022-09-28T04:59:26.458Z,96064.34
2022-09-28T05:01:54.215Z,96056.88
2022-09-28T05:04:25.573Z,96060.19
2022-09-28T05:07:11.533Z,96060.06
2022-09-28T05:09:38.787Z,96061.03
2022-09-28T05:12:06.000Z,96061.03
2022-09-28T05:14:33.034Z,96073.50
2022-09-28T05:17:06.795Z,96060.72
2022-09-28T05:19:40.911Z,96064.38
2022-09-28T05:22:13.949Z,96073.09
2022-09-28T05:24:46.417Z,96077.91
2022-09-28T05:27:13.826Z,96076.59
2022-09-28T05:29:41.267Z,96076.50
2022-09-28T05:32:49.046Z,96080.28
2022-09-28T05:35:29.701Z,96071.41
2022-09-28T05:37:57.475Z,96072.13
2022-09-28T05:40:24.445Z,96062.63
2022-09-28T05:42:51.411Z,96075.59
2022-09-28T05:45:18.410Z,96073.31
2022-09-28T05:47:50.775Z,96076.09
2022-09-28T05:50:21.098Z,96078.66
2022-09-28T05:52:58.453Z,96079.63
2022-09-28T05:55:28.302Z,96074.34
2022-09-28T05:58:00.246Z,96075.78
2022-09-28T06:00:28.409Z,96056.69
2022-09-28T06:03:03.411Z,96081.81
2022-09-28T06:05:39.418Z,96080.75
2022-09-28T06:08:10.297Z,96074.44
2022-09-28T06:10:39.468Z,96074.19
2022-09-28T06:13:06.981Z,96091.09
2022-09-28T06:15:35.382Z,96094.97
2022-09-28T06:18:09.470Z,96086.00
2022-09-28T06:20:44.048Z,96077.75
2022-09-28T06:23:17.660Z,96079.34
2022-09-28T06:25:45.757Z,96058.81
2022-09-28T06:28:14.677Z,96086.63
2022-09-28T06:30:42.826Z,96078.47
2022-09-28T06:33:14.403Z,96087.47
2022-09-28T06:35:43.648Z,96093.81
2022-09-28T06:38:11.058Z,96086.59
2022-09-28T06:40:38.486Z,96093.47
2022-09-28T06:43:14.541Z,96092.03
2022-09-28T06:46:00.200Z,96089.22
2022-09-28T06:48:45.747Z,96097.75
2022-09-28T06:51:17.439Z,96066.22
2022-09-28T06:54:04.734Z,96079.59
2022-09-28T06:56:40.761Z,96085.13
2022-09-28T06:59:07.679Z,96078.25
2022-09-28T07:01:36.276Z,96085.22
2022-09-28T07:04:42.924Z,96097.09
2022-09-28T07:07:40.620Z,96099.34
2022-09-28T07:10:28.982Z,96102.88
2022-09-28T07:13:46.470Z,96086.81
2022-09-28T07:16:07.921Z,96081.25
2022-09-28T07:18:35.689Z,96092.53
2022-09-28T07:21:04.163Z,96094.19
2022-09-28T07:23:32.239Z,96088.81
2022-09-28T07:26:23.635Z,96091.03
2022-09-28T07:29:09.179Z,96077.25
2022-09-28T07:32:00.223Z,96091.47
2022-09-28T07:34:44.051Z,96087.97
2022-09-28T07:37:19.221Z,96072.78
2022-09-28T07:40:06.379Z,96098.88
2022-09-28T07:42:38.422Z,96084.97
2022-09-28T07:45:07.065Z,96082.66
2022-09-28T07:47:35.245Z,96089.13
2022-09-28T07:50:21.559Z,96103.88
2022-09-28T07:53:02.258Z,96103.81
2022-09-28T07:55:32.179Z,96057.38
2022-09-28T07:58:10.904Z,96077.59
2022-09-28T08:01:08.074Z,96091.22
2022-09-28T08:03:35.617Z,96090.72
2022-09-28T08:06:07.197Z,96088.59
2022-09-28T08:08:35.481Z,96101.19
2022-09-28T08:11:03.063Z,96090.16
2022-09-28T08:13:48.872Z,96060.63
2022-09-28T08:19:14.485Z,96094.69
2022-09-28T08:21:47.305Z,96102.28
2022-09-28T08:24:16.616Z,96108.06
2022-09-28T08:26:45.795Z,96094.50
2022-09-28T08:29:16.974Z,96109.03
2022-09-28T08:31:43.759Z,96090.75
2022-09-28T08:34:30.738Z,96096.34
2022-09-28T08:37:09.769Z,96095.69
2022-09-28T08:39:57.653Z,96095.69
2022-09-28T08:42:48.584Z,96098.81
2022-09-28T08:45:41.823Z,96096.50
2022-09-28T08:49:13.307Z,96090.88
2022-09-28T08:52:23.956Z,96079.03
2022-09-28T08:55:39.445Z,96086.75
2022-09-28T08:58:14.950Z,96087.53
2022-09-28T09:00:54.215Z,96088.50
2022-09-28T09:03:36.054Z,96087.66
2022-09-28T09:06:44.330Z,96087.94
2022-09-28T09:09:35.876Z,96085.41
2022-09-28T09:12:23.109Z,96092.38
2022-09-28T09:15:32.566Z,96098.63
2022-09-28T09:18:44.041Z,96095.28
2022-09-28T09:22:01.201Z,96095.19
2022-09-28T09:24:37.690Z,96088.22
2022-09-28T09:27:18.247Z,96100.44
2022-09-28T09:29:53.621Z,96100.06
2022-09-28T09:32:45.433Z,96094.69
2022-09-28T09:35:39.316Z,96093.78
2022-09-28T09:38:53.652Z,96092.66
2022-09-28T09:41:52.135Z,96038.38
2022-09-28T09:44:52.968Z,96090.63
2022-09-28T09:48:04.674Z,96092.53
2022-09-28T09:50:45.999Z,96077.53
2022-09-28T09:53:24.401Z,96084.56
2022-09-28T09:56:01.608Z,96081.53
2022-09-28T09:58:52.283Z,96079.34
2022-09-28T10:01:47.477Z,96063.03
2022-09-28T10:04:57.528Z,96074.47
2022-09-28T10:07:43.573Z,96064.47
2022-09-28T10:10:33.722Z,96045.94
2022-09-28T10:13:08.969Z,96065.94
2022-09-28T10:15:36.772Z,96063.25
2022-09-28T10:18:32.617Z,96049.63
2022-09-28T10:21:37.583Z,96043.81
2022-09-28T10:24:41.418Z,96047.66
2022-09-28T10:27:14.952Z,96002.88
2022-09-28T10:29:51.182Z,96026.09
2022-09-28T10:32:25.121Z,96050.78
2022-09-28T10:35:12.222Z,96042.00
2022-09-28T10:37:59.791Z,96044.56
2022-09-28T10:41:13.484Z,96044.75
2022-09-28T10:44:10.927Z,96043.88
2022-09-28T10:46:55.465Z,96025.88
2022-09-28T10:49:25.157Z,96041.56
2022-09-28T10:51:57.448Z,96033.72
2022-09-28T10:54:32.636Z,96039.53
2022-09-28T10:57:00.967Z,96036.06
2022-09-28T10:59:48.056Z,96028.50
2022-09-28T11:02:47.333Z,96037.75
2022-09-28T11:05:30.294Z,96035.75
2022-09-28T11:08:02.765Z,96036.91
2022-09-28T11:10:38.211Z,96030.50
2022-09-28T11:13:12.635Z,96022.25
2022-09-28T11:15:44.492Z,96017.25
2022-09-28T11:18:20.070Z,96010.97
2022-09-28T11:20:47.223Z,95998.91
2022-09-28T11:23:21.681Z,95986.25
2022-09-28T11:26:04.431Z,96013.53
2022-09-28T11:28:34.998Z,96004.75
2022-09-28T11:31:08.949Z,95995.75
2022-09-28T11:33:47.791Z,95998.91
2022-09-28T11:36:35.384Z,95998.50
2022-09-28T11:39:18.200Z,95995.22
2022-09-28T11:42:35.645Z,95995.84
2022-09-28T11:45:44.385Z,95964.06
2022-09-28T11:48:18.921Z,96004.91
2022-09-28T11:51:00.375Z,95990.53
2022-09-28T11:53:42.581Z,95981.78
2022-09-28T11:56:27.467Z,95988.13
2022-09-28T11:59:01.107Z,95982.97
2022-09-28T12:01:48.651Z,95981.78
2022-09-28T12:04:41.135Z,95994.44
2022-09-28T12:07:19.638Z,95987.50
2022-09-28T12:10:09.511Z,95988.66
2022-09-28T12:12:48.676Z,95979.75
2022-09-28T12:15:21.596Z,95982.00
2022-09-28T12:17:54.447Z,95980.78
2022-09-28T12:20:32.653Z,95981.06
2022-09-28T12:22:59.386Z,95981.22
2022-09-28T12:25:28.903Z,95981.94
2022-09-28T12:28:13.562Z,95983.34
2022-09-28T12:30:43.859Z,95984.50
2022-09-28T12:33:13.204Z,95984.69
2022-09-28T12:35:58.428Z,95984.38
2022-09-28T12:38:27.963Z,95979.63
2022-09-28T12:41:11.617Z,95979.44
2022-09-28T12:44:08.857Z,95989.63
2022-09-28T12:46:48.955Z,95982.09
2022-09-28T12:50:27.314Z,95977.66
2022-09-28T12:52:45.895Z,95976.94
2022-09-28T12:55:25.040Z,95972.25
2022-09-28T12:58:08.784Z,95975.78
2022-09-28T13:01:07.775Z,95972.13
2022-09-28T13:04:13.391Z,95980.31
2022-09-28T13:06:43.369Z,95979.69
2022-09-28T13:09:24.708Z,95960.84
2022-09-28T13:12:22.680Z,95976.28
2022-09-28T13:15:06.029Z,95971.41
2022-09-28T13:17:46.734Z,95982.53
2022-09-28T13:20:25.672Z,95978.81
2022-09-28T13:23:19.098Z,95973.44
2022-09-28T13:26:01.536Z,95967.66
2022-09-28T13:28:29.621Z,95969.97
2022-09-28T13:33:35.812Z,95975.53
2022-09-28T13:36:22.587Z,95986.75
2022-09-28T13:38:49.877Z,95982.03
2022-09-28T13:41:29.843Z,95971.88
2022-09-28T13:44:16.769Z,95986.63
2022-09-28T13:46:49.477Z,95987.78
2022-09-28T13:49:54.059Z,95989.69
2022-09-28T13:52:48.251Z,95984.50
2022-09-28T13:55:48.395Z,95983.06
2022-09-28T15:02:56.662Z,95981.50
2022-09-28T15:08:44.098Z,95997.31
2022-09-28T15:11:18.132Z,95997.50
2022-09-28T15:13:44.987Z,95991.69
2022-09-28T15:16:15.555Z,95991.84
2022-09-28T15:19:04.091Z,95985.56
2022-09-28T15:21:37.728Z,96000.19
2022-09-28T15:24:33.986Z,96005.03
2022-09-28T15:27:02.607Z,96001.00
2022-09-28T15:29:33.699Z,96003.75
2022-09-28T15:32:02.121Z,95996.72
2022-09-28T15:34:52.807Z,95997.47
2022-09-28T15:37:22.971Z,96007.16
2022-09-28T15:39:51.864Z,96002.78
2022-09-28T15:42:19.376Z,96009.56
2022-09-28T15:45:01.426Z,96011.69
2022-09-28T15:47:31.871Z,96002.63
2022-09-28T15:49:58.766Z,96026.38
2022-09-28T15:52:30.669Z,96017.03
2022-09-28T15:54:57.698Z,96018.00
2022-09-28T15:57:33.619Z,96015.81
2022-09-28T16:00:01.139Z,96023.53
2022-09-28T16:02:28.066Z,95991.88
2022-09-28T16:04:59.078Z,96010.06
2022-09-28T16:07:38.534Z,96015.03
2022-09-28T16:10:11.340Z,96022.88
2022-09-28T16:12:39.111Z,96020.81
2022-09-28T16:15:07.696Z,96020.88
2022-09-28T16:17:35.392Z,96005.88
2022-09-28T16:20:17.611Z,96018.56
2022-09-28T16:22:45.255Z,96021.47
2022-09-28T16:25:24.220Z,96021.63
2022-09-28T16:27:53.455Z,96020.16
2022-09-28T16:30:25.982Z,96026.75
2022-09-28T16:33:05.218Z,96024.63
2022-09-28T16:35:34.375Z,96025.75
2022-09-28T16:38:19.879Z,96034.97
2022-09-28T16:40:56.382Z,96046.03
2022-09-28T16:43:28.667Z,96035.50
2022-09-28T16:46:00.761Z,96034.84
2022-09-28T16:48:30.293Z,96040.47
2022-09-28T16:50:57.935Z,96047.13
2022-09-28T16:53:43.431Z,96047.47
2022-09-28T16:56:11.526Z,96058.72
2022-09-28T16:58:39.192Z,96054.47
2022-09-28T17:01:09.700Z,96056.13
2022-09-28T17:03:36.731Z,96061.06
2022-09-28T17:06:06.271Z,96056.13
2022-09-28T17:08:35.501Z,96064.34
2022-09-28T17:11:15.540Z,96024.97
2022-09-28T17:13:46.016Z,96059.75
2022-09-28T17:16:32.678Z,96033.88
2022-09-28T17:19:19.448Z,96051.84
2022-09-28T17:21:48.272Z,96054.91
2022-09-28T17:24:15.183Z,96059.16
2022-09-28T17:26:44.509Z,96059.66
2022-09-28T17:29:16.876Z,96060.75
2022-09-28T17:31:45.408Z,96060.03
2022-09-28T17:34:16.293Z,96058.19
2022-09-28T17:36:44.835Z,96054.31
2022-09-28T17:39:16.850Z,96060.50
2022-09-28T17:41:43.731Z,96061.53
2022-09-28T17:44:11.170Z,96058.81
2022-09-28T17:46:40.772Z,96049.38
2022-09-28T17:49:11.658Z,96057.06
2022-09-28T17:51:38.778Z,96050.75
2022-09-28T17:54:08.094Z,96065.53
2022-09-28T17:56:39.056Z,96064.63
2022-09-28T17:59:10.272Z,96065.94
2022-09-28T18:01:39.313Z,96052.50
2022-09-28T18:04:08.845Z,96064.97
2022-09-28T18:06:39.418Z,96066.72
2022-09-28T18:09:06.313Z,96061.75
2022-09-28T18:11:33.798Z,96064.69
2022-09-28T18:14:21.606Z,96076.47
2022-09-28T18:16:48.653Z,96075.03
2022-09-28T18:19:15.537Z,96078.31
2022-09-28T18:21:42.466Z,96086.38
2022-09-28T18:24:09.275Z,96078.81
2022-09-28T18:26:39.517Z,96076.34
2022-09-28T18:29:07.441Z,96096.69
2022-09-28T18:31:34.363Z,96079.25
2022-09-28T18:34:02.373Z,96098.34
2022-09-28T18:36:33.252Z,96085.50
2022-09-28T18:39:01.486Z,96104.66
2022-09-28T18:41:29.369Z,96071.72
2022-09-28T18:44:00.931Z,96103.41
2022-09-28T18:46:36.382Z,96093.38
2022-09-28T18:49:04.609Z,96093.69
2022-09-28T18:51:31.406Z,96102.63
2022-09-28T18:53:58.227Z,96099.84
2022-09-28T18:56:25.630Z,96098.78
2022-09-28T18:58:53.630Z,96103.28
2022-09-28T19:01:30.331Z,96109.22
2022-09-28T19:04:06.263Z,96115.63
2022-09-28T19:06:37.393Z,96104.03
2022-09-28T19:09:05.855Z,96123.84
2022-09-28T19:11:32.889Z,96125.22
2022-09-28T19:13:59.823Z,96127.69
2022-09-28T19:16:28.770Z,96131.16
2022-09-28T19:18:57.359Z,96130.06
2022-09-28T19:21:24.593Z,96133.53
2022-09-28T19:23:54.438Z,96131.09
2022-09-28T19:26:27.525Z,96144.75
2022-09-28T19:28:56.715Z,96160.88
2022-09-28T19:31:26.591Z,96169.03
2022-09-28T19:33:53.433Z,96172.81
2022-09-28T19:36:23.700Z,96171.13
2022-09-28T19:38:51.993Z,96172.28
2022-09-28T19:41:43.070Z,96168.56
2022-09-28T19:44:16.121Z,96156.34
2022-09-28T19:46:43.499Z,96152.28
2022-09-28T19:49:13.996Z,96162.75
2022-09-28T19:52:01.662Z,96163.63
2022-09-28T19:54:35.559Z,96160.22
2022-09-28T19:57:08.748Z,96169.34
2022-09-28T19:59:37.333Z,96161.31
2022-09-28T20:02:21.506Z,96158.84
2022-09-28T20:04:50.109Z,96168.47
2022-09-28T20:07:17.390Z,96169.41
2022-09-28T20:09:44.232Z,96171.31
2022-09-28T20:12:12.363Z,96171.50
2022-09-28T20:14:42.612Z,96168.78
2022-09-28T20:17:09.939Z,96162.63
2022-09-28T20:19:38.546Z,96166.16
2022-09-28T20:22:05.678Z,96154.41
2022-09-28T20:24:33.122Z,96148.81
2022-09-28T20:27:01.442Z,96153.72
2022-09-28T20:29:28.671Z,96135.72
2022-09-28T20:31:55.750Z,96173.44
2022-09-28T20:34:22.647Z,96172.16
2022-09-28T20:36:49.526Z,96173.50
2022-09-28T20:39:16.578Z,96177.25
2022-09-28T20:41:43.520Z,96170.81
2022-09-28T20:44:10.578Z,96174.31
2022-09-28T20:46:38.321Z,96141.25
2022-09-28T20:49:07.082Z,96177.84
2022-09-28T20:51:36.315Z,96180.47
2022-09-28T20:54:03.188Z,96168.81
2022-09-28T20:56:37.512Z,96187.97
2022-09-28T20:59:09.950Z,96173.00
2022-09-28T21:01:37.143Z,96172.03
2022-09-28T21:04:07.751Z,96174.94
2022-09-28T21:06:37.280Z,96171.50
2022-09-28T21:09:05.835Z,96173.72
2022-09-28T21:11:35.646Z,96164.06
2022-09-28T21:14:05.752Z,96162.28
2022-09-28T21:16:33.901Z,96159.34
2022-09-28T21:19:03.152Z,96151.09
2022-09-28T21:21:30.075Z,96154.81
2022-09-28T21:23:58.097Z,96163.03
2022-09-28T21:26:28.549Z,96168.50
2022-09-28T21:29:00.315Z,96166.91
2022-09-28T21:31:30.505Z,96158.19
2022-09-28T21:33:57.731Z,96174.72
2022-09-28T21:36:25.695Z,96176.00
2022-09-28T21:38:55.120Z,96171.84
2022-09-28T21:41:22.578Z,96180.47
2022-09-28T21:43:49.431Z,96180.13
2022-09-28T21:46:17.618Z,96178.69
2022-09-28T21:48:44.736Z,96177.69
2022-09-28T21:51:14.695Z,96176.97
2022-09-28T21:53:41.636Z,96177.69
2022-09-28T21:56:12.559Z,96168.81
2022-09-28T21:58:40.139Z,96174.91
2022-09-28T22:01:15.439Z,96179.59
2022-09-28T22:03:44.089Z,96172.84
2022-09-28T22:06:11.814Z,96177.56
2022-09-28T22:08:39.495Z,96171.22
2022-09-28T22:11:12.569Z,96187.94
2022-09-28T22:13:42.491Z,96197.03
2022-09-28T22:16:10.819Z,96190.16
2022-09-28T22:18:37.873Z,96186.13
2022-09-28T22:21:06.501Z,96183.25
2022-09-28T22:23:34.487Z,96187.13
2022-09-28T22:26:05.257Z,96186.56
2022-09-28T22:28:32.075Z,96176.88
2022-09-28T22:30:59.428Z,96175.78
2022-09-28T22:33:27.343Z,96176.88
2022-09-28T22:35:56.858Z,96184.47
2022-09-28T22:38:27.405Z,96177.19
2022-09-28T22:40:56.253Z,96190.81
2022-09-28T22:43:25.109Z,96189.19
2022-09-28T22:46:03.389Z,96184.63
2022-09-28T22:48:30.591Z,96187.94
2022-09-28T22:50:57.416Z,96187.34
2022-09-28T22:53:24.456Z,96193.59
2022-09-28T22:55:51.300Z,96193.84
2022-09-28T22:58:18.220Z,96200.34
2022-09-28T23:00:45.061Z,96191.63
2022-09-28T23:03:14.242Z,96185.72
2022-09-28T23:05:41.256Z,96191.75
2022-09-28T23:08:08.166Z,96181.75
2022-09-28T23:10:34.964Z,96189.16
2022-09-28T23:13:01.787Z,96186.41
2022-09-28T23:15:29.025Z,96184.25
2022-09-28T23:17:55.891Z,96192.94
2022-09-28T23:20:23.738Z,96192.44
2022-09-28T23:22:50.648Z,96195.34
2022-09-28T23:25:18.707Z,96185.72
2022-09-28T23:27:50.128Z,96187.38
2022-09-28T23:30:19.187Z,96190.69
2022-09-28T23:32:46.367Z,96180.72
2022-09-28T23:35:14.225Z,96190.13
2022-09-28T23:37:41.014Z,96182.38
2022-09-28T23:40:08.154Z,96191.72
2022-09-28T23:42:35.532Z,96190.16
2022-09-28T23:45:02.423Z,96193.88
2022-09-28T23:47:30.380Z,96171.41
2022-09-28T23:49:57.193Z,96182.00
2022-09-28T23:52:24.081Z,96179.75
2022-09-28T23:54:50.934Z,96182.59
2022-09-28T23:57:17.844Z,96197.53
2022-09-28T23:59:44.819Z,96183.94
